Smeltertown, Colorado
Current Conditions -  °F | °C
As of 9:35 AM on Saturday 25 Oct 2014 (Local Time) from KANK Reporting Station
Clear Clear  
Wind Chill: 45°   Ceiling: Unl
Heat Index: 45°   Visibility: 10mi
Dew Point: 22°   Wind: 3mph
Humidity: 40%   Direction: 330°NNW
Pressure: 30.52"   Gusts: NA
Location:  38.5561°N, 106.066°W
Report Text: KANK 251535Z AUTO 33003KT 10SM CLR 07/M06 A3052 RMK AO1 T00721058
Loading
Personal Weather Stations






























Interactive Weather Map
Tropical Storm Tracking
New forecast layout! Learn more

10-Day Weather Forecast

Advertisements
Track Severe Weather on mobile